PWSweather.com
Personal Weather Stations
Station Observations
KTXROWLE6
Ravens Nest, Rowlett, TX 75089

Ravens NestRowlett, TX 75089

Lat: 32.93105, Lon: -96.57368

Elevation: 556

Station Type: Davis Vantage Pro2 6152

http://rowlett.ws

High Low Average
Temperature 78.7°F25.9°C 72.3°F22.4°C 75.3°F24.1°C
Dew Point 71.6°F22.0°C 67.1°F19.5°C 68.8°F20.4°C
Winds 6.3 mph 10.1 kmh Calm Calm 3.0 mph SW4.8 kmh SW
Wind Gusts 12.0 mph19.3 kmh -- 6.0 mph9.7 kmh
Humidity 90% 74% 80%
Pressure 29.90 in1012.5 mb 29.77 in1008.1 mb -
Precipitation 0.22 in5.6 mm - -
Hour Temp Dew Point Humidity Winds Wind Gusts Pressure Precip Precip Rate Daily Precip Total
12:00 AM 76.7°F24.8°C 68.2°F20.1°C 75% Calm Calm -- 29.89 in1012.2 mb 0.00 in0.0 mm 0.00 in0.0 mm 0.00 in0.0 mm
12:05 AM 76.6°F24.8°C 68.1°F20.1°C 75% Calm Calm -- 29.89 in1012.2 mb 0.00 in0.0 mm 0.00 in0.0 mm 0.00 in0.0 mm
12:10 AM 76.6°F24.8°C 68.5°F20.3°C 76% Calm Calm -- 29.89 in1012.2 mb 0.00 in0.0 mm 0.00 in0.0 mm 0.00 in0.0 mm
12:15 AM 76.4°F24.7°C 68.3°F20.2°C 76% Calm Calm -- 29.89 in1012.2 mb 0.00 in0.0 mm 0.00 in0.0 mm 0.00 in0.0 mm
12:20 AM 76.1°F24.5°C 68.4°F20.2°C 77% Calm Calm -- 29.89 in1012.2 mb 0.00 in0.0 mm 0.00 in0.0 mm 0.00 in0.0 mm
12:25 AM 75.9°F24.4°C 68.2°F20.1°C 77% Calm Calm -- 29.89 in1012.2 mb 0.00 in0.0 mm 0.00 in0.0 mm 0.00 in0.0 mm
12:30 AM 76.1°F24.5°C 68.4°F20.2°C 77% Calm Calm -- 29.89 in1012.2 mb 0.00 in0.0 mm 0.00 in0.0 mm 0.00 in0.0 mm
12:35 AM 76.4°F24.7°C 68.6°F20.3°C 77% Calm Calm -- 29.90 in1012.5 mb 0.00 in0.0 mm 0.00 in0.0 mm 0.00 in0.0 mm
12:40 AM 76.7°F24.8°C 68.5°F20.3°C 76% Calm Calm -- 29.89 in1012.2 mb 0.00 in0.0 mm 0.00 in0.0 mm 0.00 in0.0 mm
12:45 AM 76.6°F24.8°C 68.5°F20.3°C 76% Calm Calm -- 29.90 in1012.5 mb 0.00 in0.0 mm 0.00 in0.0 mm 0.00 in0.0 mm
12:50 AM 76.6°F24.8°C 68.5°F20.3°C 76% Calm Calm -- 29.90 in1012.5 mb 0.00 in0.0 mm 0.00 in0.0 mm 0.00 in0.0 mm
12:55 AM 76.5°F24.7°C 68.4°F20.2°C 76% Calm Calm -- 29.90 in1012.5 mb 0.00 in0.0 mm 0.00 in0.0 mm 0.00 in0.0 mm
01:00 AM 76.5°F24.7°C 68.4°F20.2°C 76% Calm Calm -- 29.90 in1012.5 mb 0.00 in0.0 mm 0.00 in0.0 mm 0.00 in0.0 mm
01:05 AM 76.4°F24.7°C 68.3°F20.2°C 76% Calm Calm -- 29.90 in1012.5 mb 0.00 in0.0 mm 0.00 in0.0 mm 0.00 in0.0 mm
01:10 AM 76.4°F24.7°C 68.3°F20.2°C 76% Calm Calm -- 29.90 in1012.5 mb 0.00 in0.0 mm 0.00 in0.0 mm 0.00 in0.0 mm
01:15 AM 76.5°F24.7°C 68.4°F20.2°C 76% Calm Calm -- 29.90 in1012.5 mb 0.00 in0.0 mm 0.00 in0.0 mm 0.00 in0.0 mm
01:20 AM 76.5°F24.7°C 68.4°F20.2°C 76% 0.4 mph SW0.6 kmh SW 3.0 mph4.8 kmh 29.90 in1012.5 mb 0.00 in0.0 mm 0.00 in0.0 mm 0.00 in0.0 mm
01:25 AM 76.9°F24.9°C 68.4°F20.2°C 75% 0.5 mph SW0.8 kmh SW 3.0 mph4.8 kmh 29.90 in1012.5 mb 0.00 in0.0 mm 0.00 in0.0 mm 0.00 in0.0 mm
01:30 AM 77.0°F25.0°C 68.5°F20.3°C 75% 1.1 mph SW1.8 kmh SW 4.0 mph6.4 kmh 29.90 in1012.5 mb 0.00 in0.0 mm 0.00 in0.0 mm 0.00 in0.0 mm
01:35 AM 77.2°F25.1°C 68.3°F20.2°C 74% 2.2 mph WSW3.5 kmh WSW 4.0 mph6.4 kmh 29.90 in1012.5 mb 0.00 in0.0 mm 0.00 in0.0 mm 0.00 in0.0 mm
01:40 AM 77.3°F25.2°C 68.3°F20.2°C 74% 1.8 mph W2.9 kmh W 4.0 mph6.4 kmh 29.90 in1012.5 mb 0.00 in0.0 mm 0.00 in0.0 mm 0.00 in0.0 mm
01:45 AM 77.2°F25.1°C 68.3°F20.2°C 74% 0.8 mph W1.3 kmh W 4.0 mph6.4 kmh 29.90 in1012.5 mb 0.00 in0.0 mm 0.00 in0.0 mm 0.00 in0.0 mm
01:50 AM 77.2°F25.1°C 68.3°F20.2°C 74% 1.2 mph W1.9 kmh W 3.0 mph4.8 kmh 29.90 in1012.5 mb 0.00 in0.0 mm 0.00 in0.0 mm 0.00 in0.0 mm
01:55 AM 77.2°F25.1°C 68.3°F20.2°C 74% 0.8 mph W1.3 kmh W 3.0 mph4.8 kmh 29.90 in1012.5 mb 0.00 in0.0 mm 0.00 in0.0 mm 0.00 in0.0 mm
02:00 AM 77.2°F25.1°C 68.3°F20.2°C 74% 1.4 mph WSW2.3 kmh WSW 5.0 mph8.0 kmh 29.89 in1012.2 mb 0.00 in0.0 mm 0.00 in0.0 mm 0.00 in0.0 mm
02:05 AM 77.2°F25.1°C 68.3°F20.2°C 74% 1.2 mph WSW1.9 kmh WSW 5.0 mph8.0 kmh 29.89 in1012.2 mb 0.00 in0.0 mm 0.00 in0.0 mm 0.00 in0.0 mm
02:10 AM 77.1°F25.1°C 68.2°F20.1°C 74% 1.3 mph W2.1 kmh W 4.0 mph6.4 kmh 29.89 in1012.2 mb 0.00 in0.0 mm 0.00 in0.0 mm 0.00 in0.0 mm
02:15 AM 77.1°F25.1°C 68.2°F20.1°C 74% 1.5 mph W2.4 kmh W 4.0 mph6.4 kmh 29.89 in1012.2 mb 0.00 in0.0 mm 0.00 in0.0 mm 0.00 in0.0 mm
02:20 AM 77.1°F25.1°C 68.2°F20.1°C 74% 1.7 mph WSW2.7 kmh WSW 4.0 mph6.4 kmh 29.89 in1012.2 mb 0.00 in0.0 mm 0.00 in0.0 mm 0.00 in0.0 mm
02:25 AM 77.0°F25.0°C 68.1°F20.1°C 74% 1.5 mph W2.4 kmh W 4.0 mph6.4 kmh 29.89 in1012.2 mb 0.00 in0.0 mm 0.00 in0.0 mm 0.00 in0.0 mm
02:30 AM 76.9°F24.9°C 68.0°F20.0°C 74% 1.0 mph WSW1.6 kmh WSW 4.0 mph6.4 kmh 29.89 in1012.2 mb 0.00 in0.0 mm 0.00 in0.0 mm 0.00 in0.0 mm
02:35 AM 77.0°F25.0°C 68.1°F20.1°C 74% 1.3 mph SW2.1 kmh SW 4.0 mph6.4 kmh 29.89 in1012.2 mb 0.00 in0.0 mm 0.00 in0.0 mm 0.00 in0.0 mm
02:40 AM 76.9°F24.9°C 68.0°F20.0°C 74% 1.6 mph W2.6 kmh W 4.0 mph6.4 kmh 29.89 in1012.2 mb 0.00 in0.0 mm 0.00 in0.0 mm 0.00 in0.0 mm
02:45 AM 76.9°F24.9°C 68.4°F20.2°C 75% 1.1 mph SW1.8 kmh SW 3.0 mph4.8 kmh 29.88 in1011.9 mb 0.00 in0.0 mm 0.00 in0.0 mm 0.00 in0.0 mm
02:50 AM 76.8°F24.9°C 68.3°F20.2°C 75% 0.8 mph SSW1.3 kmh SSW 4.0 mph6.4 kmh 29.88 in1011.9 mb 0.00 in0.0 mm 0.00 in0.0 mm 0.00 in0.0 mm
02:55 AM 76.8°F24.9°C 68.3°F20.2°C 75% 1.6 mph SSW2.6 kmh SSW 4.0 mph6.4 kmh 29.88 in1011.9 mb 0.00 in0.0 mm 0.00 in0.0 mm 0.00 in0.0 mm
03:00 AM 76.8°F24.9°C 68.3°F20.2°C 75% 1.0 mph SSW1.6 kmh SSW 3.0 mph4.8 kmh 29.88 in1011.9 mb 0.00 in0.0 mm 0.00 in0.0 mm 0.00 in0.0 mm
03:05 AM 76.7°F24.8°C 68.2°F20.1°C 75% 1.0 mph SW1.6 kmh SW 4.0 mph6.4 kmh 29.88 in1011.9 mb 0.00 in0.0 mm 0.00 in0.0 mm 0.00 in0.0 mm
03:10 AM 76.6°F24.8°C 68.1°F20.1°C 75% 1.7 mph SW2.7 kmh SW 6.0 mph9.7 kmh 29.88 in1011.9 mb 0.00 in0.0 mm 0.00 in0.0 mm 0.00 in0.0 mm
03:15 AM 76.7°F24.8°C 68.2°F20.1°C 75% 1.7 mph SW2.7 kmh SW 6.0 mph9.7 kmh 29.88 in1011.9 mb 0.00 in0.0 mm 0.00 in0.0 mm 0.00 in0.0 mm
03:20 AM 76.7°F24.8°C 68.2°F20.1°C 75% 1.2 mph SW1.9 kmh SW 4.0 mph6.4 kmh 29.88 in1011.9 mb 0.00 in0.0 mm 0.00 in0.0 mm 0.00 in0.0 mm
03:25 AM 76.7°F24.8°C 68.2°F20.1°C 75% 1.6 mph WSW2.6 kmh WSW 4.0 mph6.4 kmh 29.88 in1011.9 mb 0.00 in0.0 mm 0.00 in0.0 mm 0.00 in0.0 mm
03:30 AM 76.6°F24.8°C 68.1°F20.1°C 75% 2.0 mph SW3.2 kmh SW 4.0 mph6.4 kmh 29.88 in1011.9 mb 0.00 in0.0 mm 0.00 in0.0 mm 0.00 in0.0 mm
03:35 AM 76.6°F24.8°C 68.1°F20.1°C 75% 1.8 mph SW2.9 kmh SW 5.0 mph8.0 kmh 29.88 in1011.9 mb 0.00 in0.0 mm 0.00 in0.0 mm 0.00 in0.0 mm
03:40 AM 76.6°F24.8°C 68.1°F20.1°C 75% 1.7 mph SW2.7 kmh SW 5.0 mph8.0 kmh 29.88 in1011.9 mb 0.00 in0.0 mm 0.00 in0.0 mm 0.00 in0.0 mm
03:45 AM 76.4°F24.7°C 67.9°F19.9°C 75% 0.7 mph WSW1.1 kmh WSW 4.0 mph6.4 kmh 29.88 in1011.9 mb 0.00 in0.0 mm 0.00 in0.0 mm 0.00 in0.0 mm
03:50 AM 76.5°F24.7°C 68.0°F20.0°C 75% 0.8 mph WSW1.3 kmh WSW 3.0 mph4.8 kmh 29.88 in1011.9 mb 0.00 in0.0 mm 0.00 in0.0 mm 0.00 in0.0 mm
03:55 AM 76.5°F24.7°C 68.0°F20.0°C 75% 2.3 mph SW3.7 kmh SW 5.0 mph8.0 kmh 29.88 in1011.9 mb 0.00 in0.0 mm 0.00 in0.0 mm 0.00 in0.0 mm
04:00 AM 76.4°F24.7°C 67.9°F19.9°C 75% 1.8 mph SSW2.9 kmh SSW 5.0 mph8.0 kmh 29.88 in1011.9 mb 0.00 in0.0 mm 0.00 in0.0 mm 0.00 in0.0 mm
04:05 AM 76.2°F24.6°C 68.1°F20.1°C 76% 1.1 mph SSW1.8 kmh SSW 3.0 mph4.8 kmh 29.88 in1011.9 mb 0.00 in0.0 mm 0.00 in0.0 mm 0.00 in0.0 mm
04:10 AM 76.1°F24.5°C 68.0°F20.0°C 76% 1.4 mph SSW2.3 kmh SSW 4.0 mph6.4 kmh 29.88 in1011.9 mb 0.00 in0.0 mm 0.00 in0.0 mm 0.00 in0.0 mm
04:15 AM 76.1°F24.5°C 68.0°F20.0°C 76% 1.4 mph SW2.3 kmh SW 4.0 mph6.4 kmh 29.88 in1011.9 mb 0.00 in0.0 mm 0.00 in0.0 mm 0.00 in0.0 mm
04:20 AM 76.0°F24.4°C 67.9°F19.9°C 76% 0.9 mph SW1.4 kmh SW 4.0 mph6.4 kmh 29.88 in1011.9 mb 0.00 in0.0 mm 0.00 in0.0 mm 0.00 in0.0 mm
04:25 AM 75.9°F24.4°C 67.8°F19.9°C 76% 2.3 mph SSW3.7 kmh SSW 4.0 mph6.4 kmh 29.88 in1011.9 mb 0.00 in0.0 mm 0.00 in0.0 mm 0.00 in0.0 mm
04:30 AM 75.9°F24.4°C 68.2°F20.1°C 77% 1.6 mph SSW2.6 kmh SSW 4.0 mph6.4 kmh 29.87 in1011.5 mb 0.00 in0.0 mm 0.00 in0.0 mm 0.00 in0.0 mm
04:35 AM 75.7°F24.3°C 68.0°F20.0°C 77% 0.9 mph SW1.4 kmh SW 4.0 mph6.4 kmh 29.87 in1011.5 mb 0.00 in0.0 mm 0.00 in0.0 mm 0.00 in0.0 mm
04:40 AM 75.7°F24.3°C 68.0°F20.0°C 77% 1.4 mph SW2.3 kmh SW 4.0 mph6.4 kmh 29.87 in1011.5 mb 0.00 in0.0 mm 0.00 in0.0 mm 0.00 in0.0 mm
04:45 AM 75.7°F24.3°C 68.3°F20.2°C 78% 0.8 mph SW1.3 kmh SW 3.0 mph4.8 kmh 29.87 in1011.5 mb 0.00 in0.0 mm 0.00 in0.0 mm 0.00 in0.0 mm
04:50 AM 75.6°F24.2°C 68.2°F20.1°C 78% 1.9 mph SW3.1 kmh SW 4.0 mph6.4 kmh 29.87 in1011.5 mb 0.00 in0.0 mm 0.00 in0.0 mm 0.00 in0.0 mm
04:55 AM 75.6°F24.2°C 68.2°F20.1°C 78% 1.7 mph SW2.7 kmh SW 5.0 mph8.0 kmh 29.87 in1011.5 mb 0.00 in0.0 mm 0.00 in0.0 mm 0.00 in0.0 mm
05:00 AM 75.6°F24.2°C 68.2°F20.1°C 78% 1.8 mph SSW2.9 kmh SSW 5.0 mph8.0 kmh 29.87 in1011.5 mb 0.00 in0.0 mm 0.00 in0.0 mm 0.00 in0.0 mm
05:05 AM 75.5°F24.2°C 68.1°F20.1°C 78% 1.7 mph SSW2.7 kmh SSW 4.0 mph6.4 kmh 29.87 in1011.5 mb 0.00 in0.0 mm 0.00 in0.0 mm 0.00 in0.0 mm
05:10 AM 75.6°F24.2°C 68.2°F20.1°C 78% 2.6 mph SW4.2 kmh SW 5.0 mph8.0 kmh 29.88 in1011.9 mb 0.00 in0.0 mm 0.00 in0.0 mm 0.00 in0.0 mm
05:15 AM 75.6°F24.2°C 68.2°F20.1°C 78% 2.5 mph SW4.0 kmh SW 5.0 mph8.0 kmh 29.88 in1011.9 mb 0.00 in0.0 mm 0.00 in0.0 mm 0.00 in0.0 mm
05:20 AM 75.6°F24.2°C 68.2°F20.1°C 78% 2.4 mph SW3.9 kmh SW 5.0 mph8.0 kmh 29.87 in1011.5 mb 0.00 in0.0 mm 0.00 in0.0 mm 0.00 in0.0 mm
05:25 AM 75.6°F24.2°C 68.2°F20.1°C 78% 3.1 mph SW5.0 kmh SW 5.0 mph8.0 kmh 29.87 in1011.5 mb 0.00 in0.0 mm 0.00 in0.0 mm 0.00 in0.0 mm
05:30 AM 75.6°F24.2°C 68.2°F20.1°C 78% 3.1 mph SW5.0 kmh SW 6.0 mph9.7 kmh 29.87 in1011.5 mb 0.00 in0.0 mm 0.00 in0.0 mm 0.00 in0.0 mm
05:35 AM 75.6°F24.2°C 68.2°F20.1°C 78% 2.3 mph SW3.7 kmh SW 6.0 mph9.7 kmh 29.87 in1011.5 mb 0.00 in0.0 mm 0.00 in0.0 mm 0.00 in0.0 mm
05:40 AM 75.5°F24.2°C 68.1°F20.1°C 78% 3.2 mph SW5.1 kmh SW 5.0 mph8.0 kmh 29.87 in1011.5 mb 0.00 in0.0 mm 0.00 in0.0 mm 0.00 in0.0 mm
05:45 AM 75.4°F24.1°C 67.7°F19.8°C 77% 3.0 mph SW4.8 kmh SW 5.0 mph8.0 kmh 29.87 in1011.5 mb 0.00 in0.0 mm 0.00 in0.0 mm 0.00 in0.0 mm
05:50 AM 75.3°F24.1°C 68.0°F20.0°C 78% 3.4 mph SW5.5 kmh SW 5.0 mph8.0 kmh 29.86 in1011.2 mb 0.00 in0.0 mm 0.00 in0.0 mm 0.00 in0.0 mm
05:55 AM 75.3°F24.1°C 68.0°F20.0°C 78% 2.3 mph SW3.7 kmh SW 5.0 mph8.0 kmh 29.86 in1011.2 mb 0.00 in0.0 mm 0.00 in0.0 mm 0.00 in0.0 mm
06:00 AM 75.3°F24.1°C 68.0°F20.0°C 78% 1.8 mph SW2.9 kmh SW 5.0 mph8.0 kmh 29.86 in1011.2 mb 0.00 in0.0 mm 0.00 in0.0 mm 0.00 in0.0 mm
06:05 AM 75.4°F24.1°C 68.0°F20.0°C 78% 2.8 mph SW4.5 kmh SW 6.0 mph9.7 kmh 29.86 in1011.2 mb 0.00 in0.0 mm 0.00 in0.0 mm 0.00 in0.0 mm
06:10 AM 75.5°F24.2°C 68.1°F20.1°C 78% 2.2 mph SW3.5 kmh SW 6.0 mph9.7 kmh 29.86 in1011.2 mb 0.00 in0.0 mm 0.00 in0.0 mm 0.00 in0.0 mm
06:15 AM 75.8°F24.3°C 68.1°F20.1°C 77% 1.4 mph SW2.3 kmh SW 4.0 mph6.4 kmh 29.86 in1011.2 mb 0.00 in0.0 mm 0.00 in0.0 mm 0.00 in0.0 mm
06:20 AM 75.8°F24.3°C 68.1°F20.1°C 77% 2.2 mph SW3.5 kmh SW 4.0 mph6.4 kmh 29.86 in1011.2 mb 0.00 in0.0 mm 0.00 in0.0 mm 0.00 in0.0 mm
06:25 AM 75.8°F24.3°C 68.1°F20.1°C 77% 3.0 mph SW4.8 kmh SW 6.0 mph9.7 kmh 29.86 in1011.2 mb 0.00 in0.0 mm 0.00 in0.0 mm 0.00 in0.0 mm
06:30 AM 75.7°F24.3°C 68.0°F20.0°C 77% 3.2 mph SW5.1 kmh SW 6.0 mph9.7 kmh 29.86 in1011.2 mb 0.00 in0.0 mm 0.00 in0.0 mm 0.00 in0.0 mm
06:35 AM 75.6°F24.2°C 67.9°F19.9°C 77% 3.4 mph SW5.5 kmh SW 7.0 mph11.3 kmh 29.86 in1011.2 mb 0.00 in0.0 mm 0.00 in0.0 mm 0.00 in0.0 mm
06:40 AM 75.6°F24.2°C 67.9°F19.9°C 77% 2.4 mph SSW3.9 kmh SSW 7.0 mph11.3 kmh 29.86 in1011.2 mb 0.00 in0.0 mm 0.00 in0.0 mm 0.00 in0.0 mm
06:45 AM 75.6°F24.2°C 67.9°F19.9°C 77% 3.9 mph SSW6.3 kmh SSW 7.0 mph11.3 kmh 29.86 in1011.2 mb 0.00 in0.0 mm 0.00 in0.0 mm 0.00 in0.0 mm
06:50 AM 75.6°F24.2°C 67.9°F19.9°C 77% 2.9 mph SW4.7 kmh SW 7.0 mph11.3 kmh 29.86 in1011.2 mb 0.00 in0.0 mm 0.00 in0.0 mm 0.00 in0.0 mm
06:55 AM 75.7°F24.3°C 68.0°F20.0°C 77% 2.2 mph SSW3.5 kmh SSW 6.0 mph9.7 kmh 29.86 in1011.2 mb 0.00 in0.0 mm 0.00 in0.0 mm 0.00 in0.0 mm
07:00 AM 75.9°F24.4°C 68.2°F20.1°C 77% 4.3 mph SW6.9 kmh SW 10.0 mph16.1 kmh 29.86 in1011.2 mb 0.00 in0.0 mm 0.00 in0.0 mm 0.00 in0.0 mm
07:05 AM 76.0°F24.4°C 68.3°F20.2°C 77% 4.3 mph SW6.9 kmh SW 10.0 mph16.1 kmh 29.86 in1011.2 mb 0.00 in0.0 mm 0.00 in0.0 mm 0.00 in0.0 mm
07:10 AM 76.1°F24.5°C 68.4°F20.2°C 77% 3.2 mph SW5.1 kmh SW 7.0 mph11.3 kmh 29.87 in1011.5 mb 0.00 in0.0 mm 0.00 in0.0 mm 0.00 in0.0 mm
07:15 AM 76.1°F24.5°C 68.4°F20.2°C 77% 3.3 mph SW5.3 kmh SW 6.0 mph9.7 kmh 29.88 in1011.9 mb 0.00 in0.0 mm 0.00 in0.0 mm 0.00 in0.0 mm
07:20 AM 76.0°F24.4°C 68.3°F20.2°C 77% 4.0 mph SSW6.4 kmh SSW 8.0 mph12.9 kmh 29.88 in1011.9 mb 0.00 in0.0 mm 0.00 in0.0 mm 0.00 in0.0 mm
07:25 AM 75.9°F24.4°C 68.5°F20.3°C 78% 4.2 mph SW6.8 kmh SW 8.0 mph12.9 kmh 29.88 in1011.9 mb 0.00 in0.0 mm 0.00 in0.0 mm 0.00 in0.0 mm
07:30 AM 75.8°F24.3°C 68.4°F20.2°C 78% 4.9 mph SW7.9 kmh SW 8.0 mph12.9 kmh 29.88 in1011.9 mb 0.00 in0.0 mm 0.00 in0.0 mm 0.00 in0.0 mm
07:35 AM 75.8°F24.3°C 68.4°F20.2°C 78% 4.8 mph SW7.7 kmh SW 9.0 mph14.5 kmh 29.88 in1011.9 mb 0.00 in0.0 mm 0.00 in0.0 mm 0.00 in0.0 mm
07:40 AM 75.8°F24.3°C 68.4°F20.2°C 78% 5.1 mph SW8.2 kmh SW 10.0 mph16.1 kmh 29.89 in1012.2 mb 0.00 in0.0 mm 0.00 in0.0 mm 0.00 in0.0 mm
07:45 AM 75.9°F24.4°C 68.5°F20.3°C 78% 4.6 mph SW7.4 kmh SW 10.0 mph16.1 kmh 29.88 in1011.9 mb 0.00 in0.0 mm 0.00 in0.0 mm 0.00 in0.0 mm
07:50 AM 76.0°F24.4°C 68.3°F20.2°C 77% 4.6 mph SW7.4 kmh SW 10.0 mph16.1 kmh 29.88 in1011.9 mb 0.00 in0.0 mm 0.00 in0.0 mm 0.00 in0.0 mm
07:55 AM 76.3°F24.6°C 68.9°F20.5°C 78% 3.6 mph SW5.8 kmh SW 9.0 mph14.5 kmh 29.88 in1011.9 mb 0.00 in0.0 mm 0.00 in0.0 mm 0.00 in0.0 mm
08:00 AM 76.3°F24.6°C 68.5°F20.3°C 77% 3.5 mph SW5.6 kmh SW 9.0 mph14.5 kmh 29.88 in1011.9 mb 0.00 in0.0 mm 0.00 in0.0 mm 0.00 in0.0 mm
08:05 AM 76.2°F24.6°C 68.8°F20.4°C 78% 3.9 mph SW6.3 kmh SW 9.0 mph14.5 kmh 29.89 in1012.2 mb 0.00 in0.0 mm 0.00 in0.0 mm 0.00 in0.0 mm
08:10 AM 76.1°F24.5°C 68.4°F20.2°C 77% 5.3 mph SW8.5 kmh SW 9.0 mph14.5 kmh 29.89 in1012.2 mb 0.00 in0.0 mm 0.00 in0.0 mm 0.00 in0.0 mm
08:15 AM 76.3°F24.6°C 68.9°F20.5°C 78% 3.7 mph SW6.0 kmh SW 9.0 mph14.5 kmh 29.89 in1012.2 mb 0.00 in0.0 mm 0.00 in0.0 mm 0.00 in0.0 mm
08:20 AM 76.7°F24.8°C 69.3°F20.7°C 78% 4.0 mph SW6.4 kmh SW 10.0 mph16.1 kmh 29.89 in1012.2 mb 0.00 in0.0 mm 0.00 in0.0 mm 0.00 in0.0 mm
08:25 AM 76.9°F24.9°C 69.1°F20.6°C 77% 4.2 mph SW6.8 kmh SW 10.0 mph16.1 kmh 29.89 in1012.2 mb 0.00 in0.0 mm 0.00 in0.0 mm 0.00 in0.0 mm
08:30 AM 76.9°F24.9°C 69.1°F20.6°C 77% 3.8 mph SW6.1 kmh SW 10.0 mph16.1 kmh 29.89 in1012.2 mb 0.00 in0.0 mm 0.00 in0.0 mm 0.00 in0.0 mm
08:35 AM 76.8°F24.9°C 69.0°F20.6°C 77% 2.8 mph SW4.5 kmh SW 10.0 mph16.1 kmh 29.89 in1012.2 mb 0.00 in0.0 mm 0.00 in0.0 mm 0.00 in0.0 mm
08:40 AM 76.8°F24.9°C 69.0°F20.6°C 77% 1.9 mph WSW3.1 kmh WSW 8.0 mph12.9 kmh 29.89 in1012.2 mb 0.00 in0.0 mm 0.00 in0.0 mm 0.00 in0.0 mm
08:45 AM 76.7°F24.8°C 68.9°F20.5°C 77% 2.8 mph SW4.5 kmh SW 6.0 mph9.7 kmh 29.90 in1012.5 mb 0.00 in0.0 mm 0.00 in0.0 mm 0.00 in0.0 mm
08:50 AM 76.4°F24.7°C 68.3°F20.2°C 76% 2.2 mph WSW3.5 kmh WSW 6.0 mph9.7 kmh 29.90 in1012.5 mb 0.00 in0.0 mm 0.00 in0.0 mm 0.00 in0.0 mm
08:55 AM 76.2°F24.6°C 68.1°F20.1°C 76% 2.8 mph WSW4.5 kmh WSW 7.0 mph11.3 kmh 29.90 in1012.5 mb 0.02 in0.5 mm 0.24 in6.1 mm 0.02 in0.5 mm
09:00 AM 75.5°F24.2°C 67.8°F19.9°C 77% 2.5 mph SW4.0 kmh SW 7.0 mph11.3 kmh 29.90 in1012.5 mb 0.07 in1.8 mm 0.05 in1.3 mm 0.07 in1.8 mm
09:05 AM 74.9°F23.8°C 67.2°F19.6°C 77% 2.4 mph SW3.9 kmh SW 6.0 mph9.7 kmh 29.90 in1012.5 mb 0.07 in1.8 mm 0.00 in0.0 mm 0.07 in1.8 mm
09:10 AM 74.7°F23.7°C 67.4°F19.7°C 78% 2.8 mph SW4.5 kmh SW 6.0 mph9.7 kmh 29.90 in1012.5 mb 0.07 in1.8 mm 0.00 in0.0 mm 0.07 in1.8 mm
09:15 AM 74.6°F23.7°C 67.3°F19.6°C 78% 3.0 mph SW4.8 kmh SW 6.0 mph9.7 kmh 29.90 in1012.5 mb 0.07 in1.8 mm 0.00 in0.0 mm 0.07 in1.8 mm
09:20 AM 74.4°F23.6°C 67.1°F19.5°C 78% 3.5 mph WSW5.6 kmh WSW 7.0 mph11.3 kmh 29.90 in1012.5 mb 0.08 in2.0 mm 0.12 in3.0 mm 0.08 in2.0 mm
09:25 AM 74.3°F23.5°C 67.4°F19.7°C 79% 2.5 mph SW4.0 kmh SW 7.0 mph11.3 kmh 29.90 in1012.5 mb 0.08 in2.0 mm 0.00 in0.0 mm 0.08 in2.0 mm
09:30 AM 74.4°F23.6°C 67.8°F19.9°C 80% 2.0 mph WSW3.2 kmh WSW 6.0 mph9.7 kmh 29.90 in1012.5 mb 0.08 in2.0 mm 0.00 in0.0 mm 0.08 in2.0 mm
09:35 AM 74.4°F23.6°C 67.8°F19.9°C 80% 3.3 mph SW5.3 kmh SW 7.0 mph11.3 kmh 29.90 in1012.5 mb 0.08 in2.0 mm 0.00 in0.0 mm 0.08 in2.0 mm
09:40 AM 74.2°F23.4°C 68.0°F20.0°C 81% 4.5 mph WSW7.2 kmh WSW 9.0 mph14.5 kmh 29.90 in1012.5 mb 0.08 in2.0 mm 0.00 in0.0 mm 0.08 in2.0 mm
09:45 AM 74.0°F23.3°C 67.8°F19.9°C 81% 4.4 mph WSW7.1 kmh WSW 10.0 mph16.1 kmh 29.90 in1012.5 mb 0.08 in2.0 mm 0.00 in0.0 mm 0.08 in2.0 mm
09:50 AM 73.9°F23.3°C 67.7°F19.8°C 81% 4.2 mph SW6.8 kmh SW 10.0 mph16.1 kmh 29.90 in1012.5 mb 0.08 in2.0 mm 0.00 in0.0 mm 0.08 in2.0 mm
09:55 AM 73.7°F23.2°C 67.9°F19.9°C 82% 3.5 mph SW5.6 kmh SW 8.0 mph12.9 kmh 29.90 in1012.5 mb 0.06 in1.5 mm 0.00 in0.0 mm 0.08 in2.0 mm
10:00 AM 73.8°F23.2°C 68.3°F20.2°C 83% 3.2 mph SW5.1 kmh SW 8.0 mph12.9 kmh 29.89 in1012.2 mb 0.01 in0.3 mm 0.00 in0.0 mm 0.08 in2.0 mm
10:05 AM 73.9°F23.3°C 68.4°F20.2°C 83% 4.7 mph SW7.6 kmh SW 9.0 mph14.5 kmh 29.90 in1012.5 mb 0.01 in0.3 mm 0.00 in0.0 mm 0.08 in2.0 mm
10:10 AM 74.1°F23.4°C 68.6°F20.3°C 83% 4.0 mph WSW6.4 kmh WSW 9.0 mph14.5 kmh 29.90 in1012.5 mb 0.01 in0.3 mm 0.00 in0.0 mm 0.08 in2.0 mm
10:15 AM 74.1°F23.4°C 68.2°F20.1°C 82% 4.9 mph SW7.9 kmh SW 10.0 mph16.1 kmh 29.89 in1012.2 mb 0.01 in0.3 mm 0.00 in0.0 mm 0.08 in2.0 mm
10:20 AM 74.0°F23.3°C 68.5°F20.3°C 83% 3.9 mph SW6.3 kmh SW 10.0 mph16.1 kmh 29.89 in1012.2 mb 0.00 in0.0 mm 0.00 in0.0 mm 0.08 in2.0 mm
10:25 AM 74.0°F23.3°C 68.5°F20.3°C 83% 3.0 mph SW4.8 kmh SW 7.0 mph11.3 kmh 29.89 in1012.2 mb 0.00 in0.0 mm 0.00 in0.0 mm 0.08 in2.0 mm
10:30 AM 73.9°F23.3°C 68.0°F20.0°C 82% 4.8 mph SW7.7 kmh SW 9.0 mph14.5 kmh 29.88 in1011.9 mb 0.00 in0.0 mm 0.00 in0.0 mm 0.08 in2.0 mm
10:35 AM 73.9°F23.3°C 68.4°F20.2°C 83% 2.8 mph WSW4.5 kmh WSW 9.0 mph14.5 kmh 29.89 in1012.2 mb 0.00 in0.0 mm 0.00 in0.0 mm 0.08 in2.0 mm
10:40 AM 74.0°F23.3°C 68.5°F20.3°C 83% 1.9 mph WSW3.1 kmh WSW 6.0 mph9.7 kmh 29.89 in1012.2 mb 0.00 in0.0 mm 0.00 in0.0 mm 0.08 in2.0 mm
10:45 AM 74.0°F23.3°C 68.5°F20.3°C 83% 2.5 mph SW4.0 kmh SW 7.0 mph11.3 kmh 29.89 in1012.2 mb 0.00 in0.0 mm 0.00 in0.0 mm 0.08 in2.0 mm
10:50 AM 73.9°F23.3°C 68.0°F20.0°C 82% 3.6 mph SW5.8 kmh SW 7.0 mph11.3 kmh 29.89 in1012.2 mb 0.00 in0.0 mm 0.00 in0.0 mm 0.08 in2.0 mm
10:55 AM 73.8°F23.2°C 67.9°F19.9°C 82% 3.8 mph SW6.1 kmh SW 9.0 mph14.5 kmh 29.89 in1012.2 mb 0.00 in0.0 mm 0.00 in0.0 mm 0.08 in2.0 mm
11:00 AM 73.8°F23.2°C 68.3°F20.2°C 83% 2.9 mph SW4.7 kmh SW 9.0 mph14.5 kmh 29.89 in1012.2 mb 0.00 in0.0 mm 0.00 in0.0 mm 0.08 in2.0 mm
11:05 AM 73.7°F23.2°C 68.2°F20.1°C 83% 2.8 mph SW4.5 kmh SW 5.0 mph8.0 kmh 29.89 in1012.2 mb 0.00 in0.0 mm 0.00 in0.0 mm 0.08 in2.0 mm
11:10 AM 73.6°F23.1°C 68.1°F20.1°C 83% 1.6 mph SW2.6 kmh SW 5.0 mph8.0 kmh 29.89 in1012.2 mb 0.00 in0.0 mm 0.00 in0.0 mm 0.08 in2.0 mm
11:15 AM 73.5°F23.1°C 68.4°F20.2°C 84% 2.1 mph SW3.4 kmh SW 5.0 mph8.0 kmh 29.88 in1011.9 mb 0.01 in0.3 mm 0.12 in3.0 mm 0.09 in2.3 mm
11:20 AM 73.5°F23.1°C 68.4°F20.2°C 84% 3.3 mph SW5.3 kmh SW 6.0 mph9.7 kmh 29.88 in1011.9 mb 0.01 in0.3 mm 0.00 in0.0 mm 0.09 in2.3 mm
11:25 AM 73.5°F23.1°C 68.4°F20.2°C 84% 3.2 mph SW5.1 kmh SW 6.0 mph9.7 kmh 29.88 in1011.9 mb 0.01 in0.3 mm 0.00 in0.0 mm 0.09 in2.3 mm
11:30 AM 73.6°F23.1°C 68.8°F20.4°C 85% 2.6 mph SSW4.2 kmh SSW 6.0 mph9.7 kmh 29.88 in1011.9 mb 0.01 in0.3 mm 0.00 in0.0 mm 0.09 in2.3 mm
11:35 AM 73.7°F23.2°C 68.9°F20.5°C 85% 2.4 mph SW3.9 kmh SW 5.0 mph8.0 kmh 29.88 in1011.9 mb 0.01 in0.3 mm 0.00 in0.0 mm 0.09 in2.3 mm
11:40 AM 73.9°F23.3°C 69.4°F20.8°C 86% 2.8 mph SW4.5 kmh SW 7.0 mph11.3 kmh 29.88 in1011.9 mb 0.01 in0.3 mm 0.00 in0.0 mm 0.09 in2.3 mm
11:45 AM 74.0°F23.3°C 69.5°F20.8°C 86% 3.3 mph SW5.3 kmh SW 8.0 mph12.9 kmh 29.88 in1011.9 mb 0.01 in0.3 mm 0.00 in0.0 mm 0.09 in2.3 mm
11:50 AM 74.2°F23.4°C 69.7°F20.9°C 86% 3.7 mph SW6.0 kmh SW 8.0 mph12.9 kmh 29.88 in1011.9 mb 0.01 in0.3 mm 0.00 in0.0 mm 0.09 in2.3 mm
11:55 AM 74.3°F23.5°C 69.8°F21.0°C 86% 4.5 mph SW7.2 kmh SW 8.0 mph12.9 kmh 29.88 in1011.9 mb 0.01 in0.3 mm 0.00 in0.0 mm 0.09 in2.3 mm
12:00 PM 74.2°F23.4°C 69.7°F20.9°C 86% 4.7 mph SW7.6 kmh SW 8.0 mph12.9 kmh 29.88 in1011.9 mb 0.01 in0.3 mm 0.00 in0.0 mm 0.09 in2.3 mm
12:05 PM 74.1°F23.4°C 69.6°F20.9°C 86% 4.8 mph SW7.7 kmh SW 8.0 mph12.9 kmh 29.88 in1011.9 mb 0.01 in0.3 mm 0.00 in0.0 mm 0.09 in2.3 mm
12:10 PM 73.9°F23.3°C 69.4°F20.8°C 86% 5.6 mph SW9.0 kmh SW 9.0 mph14.5 kmh 29.87 in1011.5 mb 0.01 in0.3 mm 0.00 in0.0 mm 0.09 in2.3 mm
12:15 PM 73.9°F23.3°C 69.4°F20.8°C 86% 4.4 mph SSW7.1 kmh SSW 9.0 mph14.5 kmh 29.86 in1011.2 mb 0.01 in0.3 mm 0.00 in0.0 mm 0.10 in2.5 mm
12:20 PM 74.0°F23.3°C 69.9°F21.1°C 87% 5.5 mph SSW8.9 kmh SSW 12.0 mph19.3 kmh 29.86 in1011.2 mb 0.01 in0.3 mm 0.00 in0.0 mm 0.10 in2.5 mm
12:25 PM 74.1°F23.4°C 70.3°F21.3°C 88% 3.9 mph SW6.3 kmh SW 12.0 mph19.3 kmh 29.87 in1011.5 mb 0.01 in0.3 mm 0.00 in0.0 mm 0.10 in2.5 mm
12:30 PM 73.9°F23.3°C 70.1°F21.2°C 88% 2.6 mph SW4.2 kmh SW 7.0 mph11.3 kmh 29.86 in1011.2 mb 0.01 in0.3 mm 0.00 in0.0 mm 0.10 in2.5 mm
12:35 PM 73.8°F23.2°C 70.0°F21.1°C 88% 3.9 mph SW6.3 kmh SW 7.0 mph11.3 kmh 29.86 in1011.2 mb 0.02 in0.5 mm 0.12 in3.0 mm 0.11 in2.8 mm
12:40 PM 73.7°F23.2°C 69.9°F21.1°C 88% 4.9 mph SW7.9 kmh SW 10.0 mph16.1 kmh 29.86 in1011.2 mb 0.02 in0.5 mm 0.00 in0.0 mm 0.11 in2.8 mm
12:45 PM 73.7°F23.2°C 69.9°F21.1°C 88% 4.9 mph SSW7.9 kmh SSW 10.0 mph16.1 kmh 29.85 in1010.8 mb 0.03 in0.8 mm 0.12 in3.0 mm 0.12 in3.0 mm
12:50 PM 73.6°F23.1°C 69.8°F21.0°C 88% 4.3 mph SSW6.9 kmh SSW 9.0 mph14.5 kmh 29.85 in1010.8 mb 0.03 in0.8 mm 0.00 in0.0 mm 0.12 in3.0 mm
12:55 PM 73.7°F23.2°C 70.2°F21.2°C 89% 3.4 mph SW5.5 kmh SW 10.0 mph16.1 kmh 29.85 in1010.8 mb 0.04 in1.0 mm 0.12 in3.0 mm 0.13 in3.3 mm
01:00 PM 73.7°F23.2°C 70.2°F21.2°C 89% 3.5 mph SSW5.6 kmh SSW 10.0 mph16.1 kmh 29.85 in1010.8 mb 0.05 in1.3 mm 0.01 in0.3 mm 0.14 in3.6 mm
01:05 PM 73.7°F23.2°C 70.2°F21.2°C 89% 3.1 mph SSW5.0 kmh SSW 9.0 mph14.5 kmh 29.85 in1010.8 mb 0.06 in1.5 mm 0.12 in3.0 mm 0.15 in3.8 mm
01:10 PM 73.8°F23.2°C 70.0°F21.1°C 88% 4.2 mph SSW6.8 kmh SSW 9.0 mph14.5 kmh 29.85 in1010.8 mb 0.07 in1.8 mm 0.12 in3.0 mm 0.16 in4.1 mm
01:15 PM 73.8°F23.2°C 70.0°F21.1°C 88% 3.6 mph SSW5.8 kmh SSW 9.0 mph14.5 kmh 29.84 in1010.5 mb 0.07 in1.8 mm 0.00 in0.0 mm 0.17 in4.3 mm
01:20 PM 73.8°F23.2°C 70.0°F21.1°C 88% 4.5 mph SW7.2 kmh SW 8.0 mph12.9 kmh 29.84 in1010.5 mb 0.08 in2.0 mm 0.12 in3.0 mm 0.18 in4.6 mm
01:25 PM 73.8°F23.2°C 70.3°F21.3°C 89% 2.2 mph SW3.5 kmh SW 8.0 mph12.9 kmh 29.84 in1010.5 mb 0.09 in2.3 mm 0.12 in3.0 mm 0.19 in4.8 mm
01:30 PM 73.9°F23.3°C 70.8°F21.6°C 90% 2.4 mph SW3.9 kmh SW 8.0 mph12.9 kmh 29.84 in1010.5 mb 0.10 in2.5 mm 0.12 in3.0 mm 0.20 in5.1 mm
01:35 PM 74.0°F23.3°C 70.9°F21.6°C 90% 3.3 mph SW5.3 kmh SW 8.0 mph12.9 kmh 29.84 in1010.5 mb 0.10 in2.5 mm 0.00 in0.0 mm 0.21 in5.3 mm
01:40 PM 74.4°F23.6°C 71.3°F21.8°C 90% 3.5 mph SW5.6 kmh SW 8.0 mph12.9 kmh 29.84 in1010.5 mb 0.11 in2.8 mm 0.12 in3.0 mm 0.22 in5.6 mm
01:45 PM 74.5°F23.6°C 71.4°F21.9°C 90% 3.0 mph WSW4.8 kmh WSW 8.0 mph12.9 kmh 29.84 in1010.5 mb 0.10 in2.5 mm 0.00 in0.0 mm 0.22 in5.6 mm
01:50 PM 74.6°F23.7°C 71.5°F21.9°C 90% 2.9 mph W4.7 kmh W 8.0 mph12.9 kmh 29.84 in1010.5 mb 0.10 in2.5 mm 0.00 in0.0 mm 0.22 in5.6 mm
01:55 PM 74.6°F23.7°C 71.5°F21.9°C 90% 2.9 mph WNW4.7 kmh WNW 8.0 mph12.9 kmh 29.84 in1010.5 mb 0.09 in2.3 mm 0.00 in0.0 mm 0.22 in5.6 mm
02:00 PM 74.2°F23.4°C 70.4°F21.3°C 88% 4.4 mph W7.1 kmh W 9.0 mph14.5 kmh 29.84 in1010.5 mb 0.08 in2.0 mm 0.00 in0.0 mm 0.22 in5.6 mm
02:05 PM 74.0°F23.3°C 70.2°F21.2°C 88% 3.1 mph WSW5.0 kmh WSW 9.0 mph14.5 kmh 29.85 in1010.8 mb 0.07 in1.8 mm 0.00 in0.0 mm 0.22 in5.6 mm
02:10 PM 74.2°F23.4°C 70.7°F21.5°C 89% 3.1 mph WSW5.0 kmh WSW 9.0 mph14.5 kmh 29.84 in1010.5 mb 0.06 in1.5 mm 0.00 in0.0 mm 0.22 in5.6 mm
02:15 PM 75.4°F24.1°C 71.6°F22.0°C 88% 3.8 mph SW6.1 kmh SW 7.0 mph11.3 kmh 29.84 in1010.5 mb 0.05 in1.3 mm 0.00 in0.0 mm 0.22 in5.6 mm
02:20 PM 76.7°F24.8°C 71.1°F21.7°C 83% 3.8 mph W6.1 kmh W 7.0 mph11.3 kmh 29.84 in1010.5 mb 0.04 in1.0 mm 0.00 in0.0 mm 0.22 in5.6 mm
02:25 PM 77.1°F25.1°C 70.8°F21.6°C 81% 4.0 mph WSW6.4 kmh WSW 11.0 mph17.7 kmh 29.83 in1010.2 mb 0.03 in0.8 mm 0.00 in0.0 mm 0.22 in5.6 mm
02:30 PM 77.1°F25.1°C 70.8°F21.6°C 81% 3.9 mph W6.3 kmh W 11.0 mph17.7 kmh 29.83 in1010.2 mb 0.02 in0.5 mm 0.00 in0.0 mm 0.22 in5.6 mm
02:35 PM 76.9°F24.9°C 71.0°F21.7°C 82% 3.9 mph WNW6.3 kmh WNW 9.0 mph14.5 kmh 29.83 in1010.2 mb 0.01 in0.3 mm 0.00 in0.0 mm 0.22 in5.6 mm
02:40 PM 77.2°F25.1°C 70.5°F21.4°C 80% 4.1 mph WNW6.6 kmh WNW 10.0 mph16.1 kmh 29.83 in1010.2 mb 0.00 in0.0 mm 0.00 in0.0 mm 0.22 in5.6 mm
02:45 PM 77.5°F25.3°C 70.5°F21.4°C 79% 4.1 mph SW6.6 kmh SW 11.0 mph17.7 kmh 29.83 in1010.2 mb 0.00 in0.0 mm 0.00 in0.0 mm 0.22 in5.6 mm
02:50 PM 78.1°F25.6°C 70.7°F21.5°C 78% 4.6 mph WSW7.4 kmh WSW 11.0 mph17.7 kmh 29.82 in1009.8 mb 0.00 in0.0 mm 0.00 in0.0 mm 0.22 in5.6 mm
02:55 PM 77.4°F25.2°C 70.0°F21.1°C 78% 3.5 mph WSW5.6 kmh WSW 10.0 mph16.1 kmh 29.83 in1010.2 mb 0.00 in0.0 mm 0.00 in0.0 mm 0.22 in5.6 mm
03:00 PM 77.5°F25.3°C 70.5°F21.4°C 79% 2.6 mph W4.2 kmh W 8.0 mph12.9 kmh 29.83 in1010.2 mb 0.00 in0.0 mm 0.00 in0.0 mm 0.22 in5.6 mm
03:05 PM 78.2°F25.7°C 70.8°F21.6°C 78% 1.2 mph WSW1.9 kmh WSW 6.0 mph9.7 kmh 29.82 in1009.8 mb 0.00 in0.0 mm 0.00 in0.0 mm 0.22 in5.6 mm
03:10 PM 77.8°F25.4°C 70.0°F21.1°C 77% 2.4 mph SW3.9 kmh SW 6.0 mph9.7 kmh 29.83 in1010.2 mb 0.00 in0.0 mm 0.00 in0.0 mm 0.22 in5.6 mm
03:15 PM 78.1°F25.6°C 69.5°F20.8°C 75% 1.5 mph SW2.4 kmh SW 6.0 mph9.7 kmh 29.83 in1010.2 mb 0.00 in0.0 mm 0.00 in0.0 mm 0.22 in5.6 mm
03:20 PM 78.7°F25.9°C 70.5°F21.4°C 76% 2.5 mph SW4.0 kmh SW 8.0 mph12.9 kmh 29.82 in1009.8 mb 0.00 in0.0 mm 0.00 in0.0 mm 0.22 in5.6 mm
03:25 PM 77.9°F25.5°C 69.3°F20.7°C 75% 4.0 mph SW6.4 kmh SW 9.0 mph14.5 kmh 29.82 in1009.8 mb 0.00 in0.0 mm 0.00 in0.0 mm 0.22 in5.6 mm
03:30 PM 77.6°F25.3°C 69.4°F20.8°C 76% 4.2 mph SSW6.8 kmh SSW 9.0 mph14.5 kmh 29.83 in1010.2 mb 0.00 in0.0 mm 0.00 in0.0 mm 0.22 in5.6 mm
03:35 PM 77.4°F25.2°C 69.2°F20.7°C 76% 4.2 mph SW6.8 kmh SW 9.0 mph14.5 kmh 29.82 in1009.8 mb 0.00 in0.0 mm 0.00 in0.0 mm 0.22 in5.6 mm
03:40 PM 77.1°F25.1°C 69.3°F20.7°C 77% 3.5 mph SSW5.6 kmh SSW 9.0 mph14.5 kmh 29.82 in1009.8 mb 0.00 in0.0 mm 0.00 in0.0 mm 0.22 in5.6 mm
03:45 PM 76.5°F24.7°C 69.1°F20.6°C 78% 3.5 mph SW5.6 kmh SW 8.0 mph12.9 kmh 29.82 in1009.8 mb 0.00 in0.0 mm 0.00 in0.0 mm 0.22 in5.6 mm
03:50 PM 76.3°F24.6°C 68.9°F20.5°C 78% 3.6 mph SSW5.8 kmh SSW 7.0 mph11.3 kmh 29.82 in1009.8 mb 0.00 in0.0 mm 0.00 in0.0 mm 0.22 in5.6 mm
03:55 PM 76.1°F24.5°C 69.1°F20.6°C 79% 3.3 mph SSW5.3 kmh SSW 7.0 mph11.3 kmh 29.82 in1009.8 mb 0.00 in0.0 mm 0.00 in0.0 mm 0.22 in5.6 mm
04:00 PM 76.6°F24.8°C 70.0°F21.1°C 80% 2.4 mph SSW3.9 kmh SSW 6.0 mph9.7 kmh 29.82 in1009.8 mb 0.00 in0.0 mm 0.00 in0.0 mm 0.22 in5.6 mm
04:05 PM 77.7°F25.4°C 69.9°F21.1°C 77% 2.1 mph SSW3.4 kmh SSW 5.0 mph8.0 kmh 29.82 in1009.8 mb 0.00 in0.0 mm 0.00 in0.0 mm 0.22 in5.6 mm
04:10 PM 77.9°F25.5°C 70.1°F21.2°C 77% 1.8 mph SSW2.9 kmh SSW 5.0 mph8.0 kmh 29.82 in1009.8 mb 0.00 in0.0 mm 0.00 in0.0 mm 0.22 in5.6 mm
04:15 PM 77.4°F25.2°C 69.6°F20.9°C 77% 2.7 mph SSW4.3 kmh SSW 6.0 mph9.7 kmh 29.81 in1009.5 mb 0.00 in0.0 mm 0.00 in0.0 mm 0.22 in5.6 mm
04:20 PM 77.2°F25.1°C 69.4°F20.8°C 77% 3.9 mph SSW6.3 kmh SSW 7.0 mph11.3 kmh 29.81 in1009.5 mb 0.00 in0.0 mm 0.00 in0.0 mm 0.22 in5.6 mm
04:25 PM 77.1°F25.1°C 70.1°F21.2°C 79% 2.6 mph SW4.2 kmh SW 7.0 mph11.3 kmh 29.81 in1009.5 mb 0.00 in0.0 mm 0.00 in0.0 mm 0.22 in5.6 mm
04:30 PM 77.3°F25.2°C 69.9°F21.1°C 78% 2.6 mph SW4.2 kmh SW 6.0 mph9.7 kmh 29.81 in1009.5 mb 0.00 in0.0 mm 0.00 in0.0 mm 0.22 in5.6 mm
04:35 PM 77.2°F25.1°C 69.8°F21.0°C 78% 3.0 mph SSW4.8 kmh SSW 5.0 mph8.0 kmh 29.81 in1009.5 mb 0.00 in0.0 mm 0.00 in0.0 mm 0.22 in5.6 mm
04:40 PM 77.0°F25.0°C 70.0°F21.1°C 79% 2.8 mph SSW4.5 kmh SSW 7.0 mph11.3 kmh 29.81 in1009.5 mb 0.00 in0.0 mm 0.00 in0.0 mm 0.22 in5.6 mm
04:45 PM 77.0°F25.0°C 70.0°F21.1°C 79% 4.1 mph SSW6.6 kmh SSW 7.0 mph11.3 kmh 29.80 in1009.1 mb 0.00 in0.0 mm 0.00 in0.0 mm 0.22 in5.6 mm
04:50 PM 77.5°F25.3°C 70.1°F21.2°C 78% 2.5 mph S4.0 kmh S 7.0 mph11.3 kmh 29.80 in1009.1 mb 0.00 in0.0 mm 0.00 in0.0 mm 0.22 in5.6 mm
04:55 PM 77.8°F25.4°C 70.4°F21.3°C 78% 2.2 mph S3.5 kmh S 7.0 mph11.3 kmh 29.80 in1009.1 mb 0.00 in0.0 mm 0.00 in0.0 mm 0.22 in5.6 mm
05:00 PM 77.7°F25.4°C 69.9°F21.1°C 77% 3.2 mph S5.1 kmh S 8.0 mph12.9 kmh 29.80 in1009.1 mb 0.00 in0.0 mm 0.00 in0.0 mm 0.22 in5.6 mm
05:05 PM 77.6°F25.3°C 69.8°F21.0°C 77% 4.7 mph SSW7.6 kmh SSW 8.0 mph12.9 kmh 29.80 in1009.1 mb 0.00 in0.0 mm 0.00 in0.0 mm 0.22 in5.6 mm
05:10 PM 77.6°F25.3°C 69.8°F21.0°C 77% 3.6 mph S5.8 kmh S 8.0 mph12.9 kmh 29.79 in1008.8 mb 0.00 in0.0 mm 0.00 in0.0 mm 0.22 in5.6 mm
05:15 PM 77.7°F25.4°C 69.9°F21.1°C 77% 3.8 mph SSW6.1 kmh SSW 8.0 mph12.9 kmh 29.80 in1009.1 mb 0.00 in0.0 mm 0.00 in0.0 mm 0.22 in5.6 mm
05:20 PM 77.5°F25.3°C 69.7°F20.9°C 77% 4.0 mph SSW6.4 kmh SSW 8.0 mph12.9 kmh 29.80 in1009.1 mb 0.00 in0.0 mm 0.00 in0.0 mm 0.22 in5.6 mm
05:25 PM 77.4°F25.2°C 70.0°F21.1°C 78% 1.3 mph SSE2.1 kmh SSE 7.0 mph11.3 kmh 29.79 in1008.8 mb 0.00 in0.0 mm 0.00 in0.0 mm 0.22 in5.6 mm
05:30 PM 77.3°F25.2°C 69.9°F21.1°C 78% 1.3 mph S2.1 kmh S 4.0 mph6.4 kmh 29.79 in1008.8 mb 0.00 in0.0 mm 0.00 in0.0 mm 0.22 in5.6 mm
05:35 PM 77.5°F25.3°C 70.1°F21.2°C 78% 1.8 mph S2.9 kmh S 5.0 mph8.0 kmh 29.80 in1009.1 mb 0.00 in0.0 mm 0.00 in0.0 mm 0.22 in5.6 mm
05:40 PM 78.4°F25.8°C 70.2°F21.2°C 76% 1.6 mph SSW2.6 kmh SSW 5.0 mph8.0 kmh 29.79 in1008.8 mb 0.00 in0.0 mm 0.00 in0.0 mm 0.22 in5.6 mm
05:45 PM 78.5°F25.8°C 69.9°F21.1°C 75% 1.9 mph S3.1 kmh S 6.0 mph9.7 kmh 29.79 in1008.8 mb 0.00 in0.0 mm 0.00 in0.0 mm 0.22 in5.6 mm
05:50 PM 78.3°F25.7°C 69.7°F20.9°C 75% 4.0 mph SSW6.4 kmh SSW 7.0 mph11.3 kmh 29.79 in1008.8 mb 0.00 in0.0 mm 0.00 in0.0 mm 0.22 in5.6 mm
05:55 PM 77.9°F25.5°C 69.3°F20.7°C 75% 2.4 mph S3.9 kmh S 8.0 mph12.9 kmh 29.79 in1008.8 mb 0.00 in0.0 mm 0.00 in0.0 mm 0.22 in5.6 mm
06:00 PM 77.8°F25.4°C 69.6°F20.9°C 76% 2.9 mph S4.7 kmh S 8.0 mph12.9 kmh 29.80 in1009.1 mb 0.00 in0.0 mm 0.00 in0.0 mm 0.22 in5.6 mm
06:05 PM 77.5°F25.3°C 69.7°F20.9°C 77% 2.6 mph S4.2 kmh S 8.0 mph12.9 kmh 29.80 in1009.1 mb 0.00 in0.0 mm 0.00 in0.0 mm 0.22 in5.6 mm
06:10 PM 77.3°F25.2°C 69.9°F21.1°C 78% 1.0 mph SSE1.6 kmh SSE 8.0 mph12.9 kmh 29.80 in1009.1 mb 0.00 in0.0 mm 0.00 in0.0 mm 0.22 in5.6 mm
06:15 PM 77.0°F25.0°C 69.6°F20.9°C 78% 1.5 mph S2.4 kmh S 5.0 mph8.0 kmh 29.80 in1009.1 mb 0.00 in0.0 mm 0.00 in0.0 mm 0.22 in5.6 mm
06:20 PM 76.9°F24.9°C 69.5°F20.8°C 78% 1.5 mph S2.4 kmh S 5.0 mph8.0 kmh 29.80 in1009.1 mb 0.00 in0.0 mm 0.00 in0.0 mm 0.22 in5.6 mm
06:25 PM 76.8°F24.9°C 69.8°F21.0°C 79% 1.9 mph S3.1 kmh S 5.0 mph8.0 kmh 29.80 in1009.1 mb 0.00 in0.0 mm 0.00 in0.0 mm 0.22 in5.6 mm
06:30 PM 76.4°F24.7°C 69.8°F21.0°C 80% 1.7 mph S2.7 kmh S 6.0 mph9.7 kmh 29.80 in1009.1 mb 0.00 in0.0 mm 0.00 in0.0 mm 0.22 in5.6 mm
06:35 PM 76.4°F24.7°C 69.8°F21.0°C 80% 2.6 mph S4.2 kmh S 7.0 mph11.3 kmh 29.81 in1009.5 mb 0.00 in0.0 mm 0.00 in0.0 mm 0.22 in5.6 mm
06:40 PM 76.3°F24.6°C 69.7°F20.9°C 80% 2.6 mph SSW4.2 kmh SSW 7.0 mph11.3 kmh 29.81 in1009.5 mb 0.00 in0.0 mm 0.00 in0.0 mm 0.22 in5.6 mm
06:45 PM 76.2°F24.6°C 69.6°F20.9°C 80% 3.1 mph SSW5.0 kmh SSW 7.0 mph11.3 kmh 29.81 in1009.5 mb 0.00 in0.0 mm 0.00 in0.0 mm 0.22 in5.6 mm
06:50 PM 76.0°F24.4°C 69.0°F20.6°C 79% 1.8 mph SSW2.9 kmh SSW 7.0 mph11.3 kmh 29.81 in1009.5 mb 0.00 in0.0 mm 0.00 in0.0 mm 0.22 in5.6 mm
06:55 PM 76.0°F24.4°C 69.0°F20.6°C 79% 2.3 mph SSW3.7 kmh SSW 6.0 mph9.7 kmh 29.81 in1009.5 mb 0.00 in0.0 mm 0.00 in0.0 mm 0.22 in5.6 mm
07:00 PM 75.9°F24.4°C 68.9°F20.5°C 79% 2.4 mph SSW3.9 kmh SSW 6.0 mph9.7 kmh 29.81 in1009.5 mb 0.00 in0.0 mm 0.00 in0.0 mm 0.22 in5.6 mm
07:05 PM 75.7°F24.3°C 69.1°F20.6°C 80% 0.6 mph SSW1.0 kmh SSW 6.0 mph9.7 kmh 29.81 in1009.5 mb 0.00 in0.0 mm 0.00 in0.0 mm 0.22 in5.6 mm
07:10 PM 75.5°F24.2°C 68.9°F20.5°C 80% 1.5 mph SSW2.4 kmh SSW 4.0 mph6.4 kmh 29.81 in1009.5 mb 0.00 in0.0 mm 0.00 in0.0 mm 0.22 in5.6 mm
07:15 PM 75.4°F24.1°C 68.8°F20.4°C 80% 1.7 mph SSW2.7 kmh SSW 5.0 mph8.0 kmh 29.81 in1009.5 mb 0.00 in0.0 mm 0.00 in0.0 mm 0.22 in5.6 mm
07:20 PM 75.4°F24.1°C 68.8°F20.4°C 80% 1.6 mph S2.6 kmh S 5.0 mph8.0 kmh 29.81 in1009.5 mb 0.00 in0.0 mm 0.00 in0.0 mm 0.22 in5.6 mm
07:25 PM 75.3°F24.1°C 68.7°F20.4°C 80% 1.4 mph S2.3 kmh S 5.0 mph8.0 kmh 29.81 in1009.5 mb 0.00 in0.0 mm 0.00 in0.0 mm 0.22 in5.6 mm
07:30 PM 75.1°F23.9°C 68.5°F20.3°C 80% 1.9 mph SSW3.1 kmh SSW 5.0 mph8.0 kmh 29.81 in1009.5 mb 0.00 in0.0 mm 0.00 in0.0 mm 0.22 in5.6 mm
07:35 PM 75.1°F23.9°C 68.9°F20.5°C 81% 3.5 mph SSW5.6 kmh SSW 6.0 mph9.7 kmh 29.81 in1009.5 mb 0.00 in0.0 mm 0.00 in0.0 mm 0.22 in5.6 mm
07:40 PM 74.8°F23.8°C 68.6°F20.3°C 81% 3.0 mph SSW4.8 kmh SSW 6.0 mph9.7 kmh 29.81 in1009.5 mb 0.00 in0.0 mm 0.00 in0.0 mm 0.22 in5.6 mm
07:45 PM 74.6°F23.7°C 68.7°F20.4°C 82% 3.2 mph SSW5.1 kmh SSW 6.0 mph9.7 kmh 29.81 in1009.5 mb 0.00 in0.0 mm 0.00 in0.0 mm 0.22 in5.6 mm
07:50 PM 74.5°F23.6°C 68.6°F20.3°C 82% 2.9 mph SSW4.7 kmh SSW 6.0 mph9.7 kmh 29.81 in1009.5 mb 0.00 in0.0 mm 0.00 in0.0 mm 0.22 in5.6 mm
07:55 PM 74.2°F23.4°C 68.3°F20.2°C 82% 1.9 mph SSW3.1 kmh SSW 6.0 mph9.7 kmh 29.81 in1009.5 mb 0.00 in0.0 mm 0.00 in0.0 mm 0.22 in5.6 mm
08:00 PM 74.0°F23.3°C 68.1°F20.1°C 82% 1.4 mph SSW2.3 kmh SSW 6.0 mph9.7 kmh 29.82 in1009.8 mb 0.00 in0.0 mm 0.00 in0.0 mm 0.22 in5.6 mm
08:05 PM 73.9°F23.3°C 68.4°F20.2°C 83% 0.8 mph SSW1.3 kmh SSW 4.0 mph6.4 kmh 29.82 in1009.8 mb 0.00 in0.0 mm 0.00 in0.0 mm 0.22 in5.6 mm
08:10 PM 73.7°F23.2°C 68.2°F20.1°C 83% 1.8 mph SSW2.9 kmh SSW 4.0 mph6.4 kmh 29.81 in1009.5 mb 0.00 in0.0 mm 0.00 in0.0 mm 0.22 in5.6 mm
08:15 PM 73.6°F23.1°C 68.1°F20.1°C 83% 1.5 mph SSW2.4 kmh SSW 4.0 mph6.4 kmh 29.82 in1009.8 mb 0.00 in0.0 mm 0.00 in0.0 mm 0.22 in5.6 mm
08:20 PM 73.5°F23.1°C 68.4°F20.2°C 84% 1.0 mph SSW1.6 kmh SSW 4.0 mph6.4 kmh 29.81 in1009.5 mb 0.00 in0.0 mm 0.00 in0.0 mm 0.22 in5.6 mm
08:25 PM 73.3°F22.9°C 68.2°F20.1°C 84% 2.0 mph SSW3.2 kmh SSW 3.0 mph4.8 kmh 29.81 in1009.5 mb 0.00 in0.0 mm 0.00 in0.0 mm 0.22 in5.6 mm
08:30 PM 73.2°F22.9°C 68.1°F20.1°C 84% 0.7 mph SSW1.1 kmh SSW 3.0 mph4.8 kmh 29.82 in1009.8 mb 0.00 in0.0 mm 0.00 in0.0 mm 0.22 in5.6 mm
08:35 PM 73.2°F22.9°C 68.4°F20.2°C 85% 2.9 mph SSW4.7 kmh SSW 6.0 mph9.7 kmh 29.81 in1009.5 mb 0.00 in0.0 mm 0.00 in0.0 mm 0.22 in5.6 mm
08:40 PM 73.2°F22.9°C 68.4°F20.2°C 85% 1.5 mph SSW2.4 kmh SSW 6.0 mph9.7 kmh 29.81 in1009.5 mb 0.00 in0.0 mm 0.00 in0.0 mm 0.22 in5.6 mm
08:45 PM 73.1°F22.8°C 68.3°F20.2°C 85% 0.3 mph SSW0.5 kmh SSW 5.0 mph8.0 kmh 29.81 in1009.5 mb 0.00 in0.0 mm 0.00 in0.0 mm 0.22 in5.6 mm
08:50 PM 73.0°F22.8°C 68.2°F20.1°C 85% 1.3 mph SSW2.1 kmh SSW 4.0 mph6.4 kmh 29.80 in1009.1 mb 0.00 in0.0 mm 0.00 in0.0 mm 0.22 in5.6 mm
08:55 PM 73.0°F22.8°C 68.2°F20.1°C 85% 0.7 mph SSW1.1 kmh SSW 4.0 mph6.4 kmh 29.80 in1009.1 mb 0.00 in0.0 mm 0.00 in0.0 mm 0.22 in5.6 mm
09:00 PM 72.8°F22.7°C 68.0°F20.0°C 85% 0.1 mph SSW0.2 kmh SSW 3.0 mph4.8 kmh 29.80 in1009.1 mb 0.00 in0.0 mm 0.00 in0.0 mm 0.22 in5.6 mm
09:05 PM 72.6°F22.6°C 68.2°F20.1°C 86% 0.9 mph SSW1.4 kmh SSW 4.0 mph6.4 kmh 29.79 in1008.8 mb 0.00 in0.0 mm 0.00 in0.0 mm 0.22 in5.6 mm
09:10 PM 72.6°F22.6°C 68.2°F20.1°C 86% 2.5 mph SSW4.0 kmh SSW 4.0 mph6.4 kmh 29.79 in1008.8 mb 0.00 in0.0 mm 0.00 in0.0 mm 0.22 in5.6 mm
09:15 PM 72.6°F22.6°C 68.5°F20.3°C 87% 1.8 mph SSW2.9 kmh SSW 4.0 mph6.4 kmh 29.79 in1008.8 mb 0.00 in0.0 mm 0.00 in0.0 mm 0.22 in5.6 mm
09:20 PM 72.7°F22.6°C 68.6°F20.3°C 87% 2.9 mph SSW4.7 kmh SSW 5.0 mph8.0 kmh 29.79 in1008.8 mb 0.00 in0.0 mm 0.00 in0.0 mm 0.22 in5.6 mm
09:25 PM 72.8°F22.7°C 68.7°F20.4°C 87% 2.4 mph SSW3.9 kmh SSW 7.0 mph11.3 kmh 29.78 in1008.5 mb 0.00 in0.0 mm 0.00 in0.0 mm 0.22 in5.6 mm
09:30 PM 72.8°F22.7°C 68.7°F20.4°C 87% 3.8 mph SSW6.1 kmh SSW 7.0 mph11.3 kmh 29.79 in1008.8 mb 0.00 in0.0 mm 0.00 in0.0 mm 0.22 in5.6 mm
09:35 PM 72.9°F22.7°C 68.8°F20.4°C 87% 4.9 mph SSW7.9 kmh SSW 11.0 mph17.7 kmh 29.78 in1008.5 mb 0.00 in0.0 mm 0.00 in0.0 mm 0.22 in5.6 mm
09:40 PM 73.0°F22.8°C 68.9°F20.5°C 87% 6.1 mph S9.8 kmh S 11.0 mph17.7 kmh 29.78 in1008.5 mb 0.00 in0.0 mm 0.00 in0.0 mm 0.22 in5.6 mm
09:45 PM 72.8°F22.7°C 68.7°F20.4°C 87% 4.7 mph SSW7.6 kmh SSW 11.0 mph17.7 kmh 29.77 in1008.1 mb 0.00 in0.0 mm 0.00 in0.0 mm 0.22 in5.6 mm
09:50 PM 72.7°F22.6°C 68.9°F20.5°C 88% 3.8 mph S6.1 kmh S 10.0 mph16.1 kmh 29.77 in1008.1 mb 0.00 in0.0 mm 0.00 in0.0 mm 0.22 in5.6 mm
09:55 PM 72.6°F22.6°C 68.8°F20.4°C 88% 3.9 mph S6.3 kmh S 10.0 mph16.1 kmh 29.77 in1008.1 mb 0.00 in0.0 mm 0.00 in0.0 mm 0.22 in5.6 mm
10:00 PM 72.5°F22.5°C 68.7°F20.4°C 88% 4.1 mph SSW6.6 kmh SSW 10.0 mph16.1 kmh 29.77 in1008.1 mb 0.00 in0.0 mm 0.00 in0.0 mm 0.22 in5.6 mm
10:05 PM 72.5°F22.5°C 68.7°F20.4°C 88% 5.3 mph S8.5 kmh S 11.0 mph17.7 kmh 29.77 in1008.1 mb 0.00 in0.0 mm 0.00 in0.0 mm 0.22 in5.6 mm
10:10 PM 72.6°F22.6°C 68.8°F20.4°C 88% 3.2 mph SSW5.1 kmh SSW 11.0 mph17.7 kmh 29.78 in1008.5 mb 0.00 in0.0 mm 0.00 in0.0 mm 0.22 in5.6 mm
10:15 PM 72.5°F22.5°C 68.7°F20.4°C 88% 5.1 mph SSW8.2 kmh SSW 11.0 mph17.7 kmh 29.78 in1008.5 mb 0.00 in0.0 mm 0.00 in0.0 mm 0.22 in5.6 mm
10:20 PM 72.6°F22.6°C 68.8°F20.4°C 88% 5.3 mph SSW8.5 kmh SSW 12.0 mph19.3 kmh 29.78 in1008.5 mb 0.00 in0.0 mm 0.00 in0.0 mm 0.22 in5.6 mm
10:25 PM 72.5°F22.5°C 68.7°F20.4°C 88% 5.4 mph SSW8.7 kmh SSW 12.0 mph19.3 kmh 29.78 in1008.5 mb 0.00 in0.0 mm 0.00 in0.0 mm 0.22 in5.6 mm
10:30 PM 72.4°F22.4°C 68.3°F20.2°C 87% 6.3 mph SW10.1 kmh SW 12.0 mph19.3 kmh 29.78 in1008.5 mb 0.00 in0.0 mm 0.00 in0.0 mm 0.22 in5.6 mm
10:35 PM 72.4°F22.4°C 68.6°F20.3°C 88% 4.4 mph SSW7.1 kmh SSW 12.0 mph19.3 kmh 29.78 in1008.5 mb 0.00 in0.0 mm 0.00 in0.0 mm 0.22 in5.6 mm
10:40 PM 72.4°F22.4°C 68.6°F20.3°C 88% 5.1 mph SSW8.2 kmh SSW 9.0 mph14.5 kmh 29.78 in1008.5 mb 0.00 in0.0 mm 0.00 in0.0 mm 0.22 in5.6 mm
10:45 PM 72.4°F22.4°C 68.6°F20.3°C 88% 4.2 mph SSW6.8 kmh SSW 9.0 mph14.5 kmh 29.78 in1008.5 mb 0.00 in0.0 mm 0.00 in0.0 mm 0.22 in5.6 mm
10:50 PM 72.4°F22.4°C 68.6°F20.3°C 88% 3.8 mph SSW6.1 kmh SSW 8.0 mph12.9 kmh 29.78 in1008.5 mb 0.00 in0.0 mm 0.00 in0.0 mm 0.22 in5.6 mm
10:55 PM 72.3°F22.4°C 68.5°F20.3°C 88% 3.6 mph SSW5.8 kmh SSW 8.0 mph12.9 kmh 29.78 in1008.5 mb 0.00 in0.0 mm 0.00 in0.0 mm 0.22 in5.6 mm
11:00 PM 72.4°F22.4°C 68.6°F20.3°C 88% 1.6 mph SSW2.6 kmh SSW 8.0 mph12.9 kmh 29.79 in1008.8 mb 0.00 in0.0 mm 0.00 in0.0 mm 0.22 in5.6 mm
11:05 PM 72.4°F22.4°C 68.6°F20.3°C 88% 2.6 mph SW4.2 kmh SW 7.0 mph11.3 kmh 29.79 in1008.8 mb 0.00 in0.0 mm 0.00 in0.0 mm 0.19 in4.8 mm
11:10 PM 72.4°F22.4°C 68.6°F20.3°C 88% 2.1 mph SSW3.4 kmh SSW 7.0 mph11.3 kmh 29.80 in1009.1 mb 0.00 in0.0 mm 0.00 in0.0 mm 0.19 in4.8 mm
11:15 PM 72.4°F22.4°C 68.3°F20.2°C 87% 2.6 mph SW4.2 kmh SW 6.0 mph9.7 kmh 29.80 in1009.1 mb 0.00 in0.0 mm 0.00 in0.0 mm 0.19 in4.8 mm
11:20 PM 72.5°F22.5°C 68.7°F20.4°C 88% 3.2 mph SSW5.1 kmh SSW 6.0 mph9.7 kmh 29.80 in1009.1 mb 0.00 in0.0 mm 0.00 in0.0 mm 0.19 in4.8 mm
11:25 PM 72.6°F22.6°C 68.8°F20.4°C 88% 2.9 mph SSW4.7 kmh SSW 6.0 mph9.7 kmh 29.80 in1009.1 mb 0.00 in0.0 mm 0.00 in0.0 mm 0.19 in4.8 mm
11:30 PM 72.6°F22.6°C 68.5°F20.3°C 87% 1.8 mph SSW2.9 kmh SSW 6.0 mph9.7 kmh 29.80 in1009.1 mb 0.00 in0.0 mm 0.00 in0.0 mm 0.19 in4.8 mm
11:35 PM 72.6°F22.6°C 68.5°F20.3°C 87% 2.3 mph SSW3.7 kmh SSW 5.0 mph8.0 kmh 29.80 in1009.1 mb 0.00 in0.0 mm 0.00 in0.0 mm 0.19 in4.8 mm
11:40 PM 72.7°F22.6°C 68.6°F20.3°C 87% 2.8 mph SSW4.5 kmh SSW 5.0 mph8.0 kmh 29.80 in1009.1 mb 0.00 in0.0 mm 0.00 in0.0 mm 0.19 in4.8 mm
11:45 PM 72.7°F22.6°C 68.6°F20.3°C 87% 2.2 mph SW3.5 kmh SW 5.0 mph8.0 kmh 29.80 in1009.1 mb 0.00 in0.0 mm 0.00 in0.0 mm 0.19 in4.8 mm
11:50 PM 72.7°F22.6°C 68.6°F20.3°C 87% 2.4 mph SSW3.9 kmh SSW 5.0 mph8.0 kmh 29.80 in1009.1 mb 0.00 in0.0 mm 0.00 in0.0 mm 0.19 in4.8 mm
11:55 PM 72.7°F22.6°C 68.6°F20.3°C 87% 2.7 mph SSW4.3 kmh SSW 5.0 mph8.0 kmh 29.80 in1009.1 mb 0.00 in0.0 mm 0.00 in0.0 mm 0.19 in4.8 mm